createdAt,value
2017-09-11T00:00:34.430Z,78.00
2017-09-11T00:03:00.703Z,78.00
2017-09-11T00:05:26.984Z,77.70
2017-09-11T00:07:53.710Z,77.70
2017-09-11T00:10:20.004Z,77.50
2017-09-11T00:12:47.072Z,77.50
2017-09-11T00:15:13.718Z,77.20
2017-09-11T00:17:39.970Z,78.30
2017-09-11T00:20:06.224Z,78.30
2017-09-11T00:22:32.822Z,77.40
2017-09-11T00:24:59.095Z,77.10
2017-09-11T00:27:25.359Z,77.90
2017-09-11T00:29:52.726Z,77.00
2017-09-11T00:32:19.012Z,76.90
2017-09-11T00:34:45.331Z,77.00
2017-09-11T00:37:12.038Z,78.40
2017-09-11T00:39:38.376Z,77.40
2017-09-11T00:42:04.623Z,76.90
2017-09-11T00:44:31.342Z,77.20
2017-09-11T00:46:57.705Z,77.70
2017-09-11T00:49:24.058Z,77.80
2017-09-11T00:51:51.496Z,77.80
2017-09-11T00:54:17.782Z,77.80
2017-09-11T00:56:44.054Z,77.30
2017-09-11T00:59:10.807Z,77.10
2017-09-11T01:01:37.098Z,77.00
2017-09-11T01:04:03.532Z,77.20
2017-09-11T01:06:30.300Z,76.60
2017-09-11T01:08:57.341Z,77.90
2017-09-11T01:11:23.632Z,77.90
2017-09-11T01:13:50.281Z,77.90
2017-09-11T01:16:16.648Z,77.50
2017-09-11T01:18:42.937Z,77.80
2017-09-11T01:21:16.638Z,77.30
2017-09-11T01:23:42.974Z,77.60
2017-09-11T01:26:09.306Z,77.80
2017-09-11T01:28:35.967Z,77.40
2017-09-11T01:31:02.326Z,77.70
2017-09-11T01:33:29.349Z,78.40
2017-09-11T01:35:56.055Z,77.90
2017-09-11T01:38:22.348Z,77.80
2017-09-11T01:40:49.425Z,77.20
2017-09-11T01:43:16.116Z,77.10
2017-09-11T01:45:42.376Z,77.40
2017-09-11T01:48:09.491Z,77.60
2017-09-11T01:50:36.142Z,77.50
2017-09-11T01:53:02.533Z,77.70
2017-09-11T01:55:28.801Z,76.90
2017-09-11T01:57:55.492Z,77.40
2017-09-11T02:00:21.827Z,77.10
2017-09-11T02:02:48.085Z,77.80
2017-09-11T02:05:14.731Z,77.30
2017-09-11T02:07:41.805Z,78.40
2017-09-11T02:10:08.880Z,77.90
2017-09-11T02:12:35.544Z,77.80
2017-09-11T02:15:01.793Z,77.90
2017-09-11T02:17:28.042Z,77.50
2017-09-11T02:19:54.723Z,77.70
2017-09-11T02:22:21.005Z,78.00
2017-09-11T02:24:47.305Z,77.90
2017-09-11T02:27:14.069Z,77.70
2017-09-11T02:29:40.396Z,77.70
2017-09-11T02:32:06.778Z,77.50
2017-09-11T02:34:33.424Z,77.80
2017-09-11T02:36:59.752Z,77.80
2017-09-11T02:39:26.100Z,77.70
2017-09-11T02:41:52.726Z,77.70
2017-09-11T02:44:19.104Z,77.80
2017-09-11T02:46:45.384Z,77.70
2017-09-11T02:49:12.077Z,77.70
2017-09-11T02:51:38.354Z,77.90
2017-09-11T02:54:04.649Z,77.80
2017-09-11T02:56:32.037Z,77.90
2017-09-11T02:58:58.298Z,77.80
2017-09-11T03:01:24.591Z,78.10
2017-09-11T03:03:51.278Z,78.10
2017-09-11T03:06:17.549Z,78.40
2017-09-11T03:08:44.554Z,78.10
2017-09-11T03:11:11.133Z,78.10
2017-09-11T03:13:37.448Z,78.90
2017-09-11T03:16:03.705Z,78.00
2017-09-11T03:18:30.398Z,77.90
2017-09-11T03:20:56.666Z,78.30
2017-09-11T03:23:23.670Z,77.80
2017-09-11T03:25:50.409Z,77.80
2017-09-11T03:28:16.712Z,78.20
2017-09-11T03:30:43.003Z,78.10
2017-09-11T03:33:10.077Z,78.10
2017-09-11T03:35:36.412Z,78.10
2017-09-11T03:38:02.689Z,78.20
2017-09-11T03:40:29.012Z,78.30
2017-09-11T03:42:55.286Z,78.50
2017-09-11T03:45:21.597Z,78.70
2017-09-11T03:47:48.688Z,78.70
2017-09-11T03:50:15.011Z,78.70
2017-09-11T03:52:41.333Z,79.00
2017-09-11T03:55:07.680Z,78.80
2017-09-11T03:57:33.981Z,78.80
2017-09-11T04:00:00.284Z,78.00
2017-09-11T04:02:27.725Z,78.50
2017-09-11T04:04:54.753Z,78.00
2017-09-11T04:07:21.010Z,78.10
2017-09-11T04:09:47.701Z,78.20
2017-09-11T04:12:14.110Z,78.00
2017-09-11T04:14:41.165Z,78.90
2017-09-11T04:17:08.292Z,78.90
2017-09-11T04:19:35.309Z,78.30
2017-09-11T04:22:01.639Z,78.30
2017-09-11T04:24:27.945Z,78.30
2017-09-11T04:26:54.261Z,78.10
2017-09-11T04:29:20.529Z,78.50
2017-09-11T04:31:46.812Z,78.20
2017-09-11T04:34:13.915Z,78.20
2017-09-11T04:36:40.244Z,78.50
2017-09-11T04:39:06.596Z,78.90
2017-09-11T04:41:33.689Z,78.20
2017-09-11T04:43:59.976Z,78.10
2017-09-11T04:46:27.511Z,78.60
2017-09-11T04:48:53.769Z,78.60
2017-09-11T04:51:20.786Z,77.90
2017-09-11T04:53:47.505Z,77.90
2017-09-11T04:56:13.773Z,78.30
2017-09-11T04:58:40.776Z,78.50
2017-09-11T05:01:07.065Z,78.40
2017-09-11T05:03:34.110Z,78.30
2017-09-11T05:06:01.141Z,78.50
2017-09-11T05:08:30.212Z,78.50
2017-09-11T05:10:56.548Z,78.10
2017-09-11T05:13:22.851Z,77.90
2017-09-11T05:15:49.506Z,78.20
2017-09-11T05:18:15.872Z,78.60
2017-09-11T05:20:42.090Z,78.10
2017-09-11T05:23:08.386Z,78.30
2017-09-11T05:25:39.720Z,78.30
2017-09-11T05:28:05.968Z,78.30
2017-09-11T05:30:32.853Z,78.60
2017-09-11T05:33:01.291Z,78.90
2017-09-11T05:35:27.597Z,78.80
2017-09-11T05:37:53.882Z,78.60
2017-09-11T05:40:20.134Z,78.60
2017-09-11T05:42:47.228Z,79.40
2017-09-11T05:45:13.897Z,78.50
2017-09-11T05:47:40.230Z,78.40
2017-09-11T05:50:06.501Z,78.00
2017-09-11T05:52:33.154Z,78.10
2017-09-11T05:54:59.413Z,78.30
2017-09-11T05:57:25.678Z,78.10
2017-09-11T05:59:53.057Z,77.40
2017-09-11T06:02:19.325Z,77.40
2017-09-11T06:04:45.676Z,77.10
2017-09-11T06:07:12.699Z,77.80
2017-09-11T06:09:39.050Z,78.10
2017-09-11T06:12:05.354Z,78.00
2017-09-11T06:14:32.085Z,77.90
2017-09-11T06:16:58.441Z,77.90
2017-09-11T06:19:24.746Z,76.90
2017-09-11T06:21:51.418Z,76.90
2017-09-11T06:24:17.713Z,76.80
2017-09-11T06:26:45.054Z,76.90
2017-09-11T06:29:11.702Z,75.70
2017-09-11T06:31:38.040Z,76.80
2017-09-11T06:34:04.487Z,75.60
2017-09-11T06:36:30.816Z,76.20
2017-09-11T06:38:57.093Z,75.70
2017-09-11T06:41:25.101Z,76.50
2017-09-11T06:43:51.370Z,75.60
2017-09-11T06:46:17.702Z,76.00
2017-09-11T06:48:51.006Z,76.20
2017-09-11T06:51:17.377Z,74.80
2017-09-11T06:53:44.326Z,74.50
2017-09-11T06:56:10.754Z,74.80
2017-09-11T06:58:37.019Z,74.70
2017-09-11T07:01:03.725Z,73.60
2017-09-11T07:03:29.995Z,74.00
2017-09-11T07:05:57.036Z,72.80
2017-09-11T07:08:23.753Z,74.30
2017-09-11T07:10:50.108Z,73.70
2017-09-11T07:13:23.717Z,73.40
2017-09-11T07:15:50.013Z,72.80
2017-09-11T07:18:16.301Z,72.20
2017-09-11T07:20:43.330Z,71.70
2017-09-11T07:23:09.634Z,71.60
2017-09-11T07:25:36.973Z,71.80
2017-09-11T07:28:03.845Z,71.10
2017-09-11T07:30:30.177Z,70.40
2017-09-11T07:32:56.478Z,69.50
2017-09-11T07:35:23.152Z,70.20
2017-09-11T07:37:49.483Z,70.00
2017-09-11T07:40:15.770Z,68.10
2017-09-11T07:42:42.096Z,68.10
2017-09-11T07:45:08.389Z,67.50
2017-09-11T07:47:34.840Z,67.30
2017-09-11T07:50:02.225Z,67.10
2017-09-11T07:52:28.438Z,67.00
2017-09-11T07:54:54.718Z,66.70
2017-09-11T07:57:21.022Z,65.00
2017-09-11T07:59:47.302Z,64.60
2017-09-11T08:02:14.360Z,65.30
2017-09-11T08:04:40.673Z,64.40
2017-09-11T08:07:07.007Z,64.80
2017-09-11T08:09:34.021Z,64.40
2017-09-11T08:12:00.353Z,64.40
2017-09-11T08:14:26.620Z,63.40
2017-09-11T08:16:53.599Z,63.70
2017-09-11T08:19:20.238Z,63.40
2017-09-11T08:21:46.553Z,63.20
2017-09-11T08:24:12.828Z,62.50
2017-09-11T08:26:39.127Z,60.40
2017-09-11T08:29:05.405Z,59.20
2017-09-11T08:31:31.712Z,58.40
2017-09-11T08:33:58.033Z,59.10
2017-09-11T08:36:24.407Z,58.40
2017-09-11T08:38:51.418Z,54.40
2017-09-11T08:41:18.040Z,54.40
2017-09-11T08:43:44.369Z,55.70
2017-09-11T08:46:10.625Z,56.60
2017-09-11T08:48:36.965Z,57.40
2017-09-11T08:51:03.266Z,55.20
2017-09-11T08:53:29.552Z,55.30
2017-09-11T08:55:56.552Z,56.30
2017-09-11T08:58:22.818Z,56.30
2017-09-11T09:00:49.185Z,56.70
2017-09-11T09:03:15.499Z,57.60
2017-09-11T09:05:42.601Z,56.70
2017-09-11T09:08:08.936Z,56.70
2017-09-11T09:10:35.252Z,57.00
2017-09-11T09:13:01.646Z,57.50
2017-09-11T09:15:27.928Z,56.70
2017-09-11T09:17:54.618Z,56.80
2017-09-11T09:20:20.951Z,56.70
2017-09-11T09:22:47.925Z,56.40
2017-09-11T09:25:14.249Z,56.40
2017-09-11T09:27:40.525Z,57.20
2017-09-11T09:30:06.839Z,57.90
2017-09-11T09:32:33.103Z,57.90
2017-09-11T09:35:00.168Z,57.80
2017-09-11T09:37:26.453Z,57.70
2017-09-11T09:39:52.756Z,57.80
2017-09-11T09:42:19.104Z,58.80
2017-09-11T09:44:45.400Z,59.20
2017-09-11T09:47:11.710Z,59.70
2017-09-11T09:49:38.769Z,60.50
2017-09-11T09:52:05.091Z,60.40
2017-09-11T09:54:31.865Z,61.30
2017-09-11T09:56:58.166Z,61.20
2017-09-11T09:59:24.494Z,61.20
2017-09-11T10:01:51.600Z,61.70
2017-09-11T10:04:17.846Z,61.60
2017-09-11T10:06:44.148Z,60.80
2017-09-11T10:09:10.870Z,61.20
2017-09-11T10:11:37.194Z,60.30
2017-09-11T10:14:03.515Z,61.60
2017-09-11T10:16:29.846Z,60.60
2017-09-11T10:18:56.188Z,60.40
2017-09-11T10:21:22.517Z,60.10
2017-09-11T10:23:48.857Z,60.50
2017-09-11T10:26:15.214Z,60.40
2017-09-11T10:28:41.545Z,60.80
2017-09-11T10:31:08.244Z,62.10
2017-09-11T10:33:34.553Z,61.80
2017-09-11T10:36:01.674Z,62.00
2017-09-11T10:38:28.005Z,62.00
2017-09-11T10:40:54.317Z,63.00
2017-09-11T10:43:21.510Z,62.80
2017-09-11T10:45:48.597Z,62.60
2017-09-11T10:48:14.965Z,62.50
2017-09-11T10:50:41.274Z,62.50
2017-09-11T10:53:07.670Z,62.40
2017-09-11T10:55:33.977Z,62.90
2017-09-11T10:58:01.070Z,62.10
2017-09-11T11:00:27.370Z,62.10
2017-09-11T11:02:53.685Z,62.50
2017-09-11T11:05:20.692Z,61.90
2017-09-11T11:07:47.416Z,61.90
2017-09-11T11:10:13.678Z,62.70
2017-09-11T11:12:39.969Z,61.90
2017-09-11T11:15:06.271Z,61.60
2017-09-11T11:17:33.314Z,62.00
2017-09-11T11:20:00.364Z,62.30
2017-09-11T11:22:27.760Z,62.70
2017-09-11T11:24:54.037Z,62.60
2017-09-11T11:27:21.067Z,62.70
2017-09-11T11:29:47.667Z,62.70
2017-09-11T11:32:13.926Z,63.40
2017-09-11T11:34:40.204Z,63.30
2017-09-11T11:37:06.880Z,63.30
2017-09-11T11:39:33.228Z,63.20
2017-09-11T11:41:59.555Z,63.70
2017-09-11T11:44:26.318Z,64.20
2017-09-11T11:46:53.865Z,66.00
2017-09-11T11:49:20.217Z,65.30
2017-09-11T11:51:47.326Z,68.30
2017-09-11T11:54:13.661Z,68.20
2017-09-11T11:56:40.079Z,69.50
2017-09-11T11:59:06.370Z,71.10
2017-09-11T12:01:34.010Z,71.70
2017-09-11T12:04:00.321Z,71.80
2017-09-11T12:06:26.976Z,72.40
2017-09-11T12:08:53.310Z,73.40
2017-09-11T12:11:20.365Z,72.70
2017-09-11T12:13:46.980Z,72.70
2017-09-11T12:16:13.281Z,73.60
2017-09-11T12:18:39.604Z,73.70
2017-09-11T12:21:06.287Z,74.40
2017-09-11T12:23:33.314Z,73.60
2017-09-11T12:25:59.625Z,73.60
2017-09-11T12:28:26.303Z,72.10
2017-09-11T12:30:52.604Z,72.60
2017-09-11T12:33:19.112Z,68.50
2017-09-11T12:35:45.438Z,68.00
2017-09-11T12:38:11.928Z,67.80
2017-09-11T12:40:38.239Z,65.80
2017-09-11T12:43:04.536Z,65.50
2017-09-11T12:45:30.861Z,64.50
2017-09-11T12:47:58.044Z,64.00
2017-09-11T12:50:24.672Z,64.00
2017-09-11T12:52:50.938Z,62.30
2017-09-11T12:55:17.237Z,63.80
2017-09-11T12:57:43.573Z,63.60
2017-09-11T13:00:09.860Z,63.70
2017-09-11T13:02:36.932Z,61.90
2017-09-11T13:05:03.304Z,61.80
2017-09-11T13:07:29.634Z,60.80
2017-09-11T13:09:56.138Z,60.30
2017-09-11T13:12:22.770Z,60.30
2017-09-11T13:14:49.097Z,62.30
2017-09-11T13:17:15.410Z,59.90
2017-09-11T13:19:41.712Z,57.90
2017-09-11T13:22:07.989Z,57.60
2017-09-11T13:24:34.282Z,57.80
2017-09-11T13:27:01.377Z,58.80
2017-09-11T13:29:27.655Z,58.60
2017-09-11T13:31:53.979Z,58.70
2017-09-11T13:34:20.602Z,57.80
2017-09-11T13:36:46.909Z,58.60
2017-09-11T13:39:13.165Z,57.40
2017-09-11T13:41:39.556Z,56.40
2017-09-11T13:44:05.831Z,55.30
2017-09-11T13:46:32.089Z,57.20
2017-09-11T13:48:59.101Z,55.30
2017-09-11T13:51:25.396Z,55.30
2017-09-11T13:53:51.641Z,56.90
2017-09-11T13:56:18.302Z,57.20
2017-09-11T13:58:44.589Z,58.30
2017-09-11T14:01:10.915Z,58.10
2017-09-11T14:03:37.217Z,57.70
2017-09-11T14:06:03.522Z,58.40
2017-09-11T14:08:29.769Z,59.10
2017-09-11T14:10:56.453Z,58.80
2017-09-11T14:13:22.773Z,59.20
2017-09-11T14:15:49.063Z,60.60
2017-09-11T14:18:15.380Z,61.20
2017-09-11T14:20:41.665Z,59.20
2017-09-11T14:23:07.988Z,57.70
2017-09-11T14:25:34.375Z,58.10
2017-09-11T14:28:00.679Z,55.70
2017-09-11T14:30:26.948Z,55.50
2017-09-11T14:32:53.540Z,56.30
2017-09-11T14:35:19.868Z,55.90
2017-09-11T14:37:46.210Z,58.50
2017-09-11T14:40:12.441Z,59.10
2017-09-11T14:42:38.822Z,57.70
2017-09-11T14:45:05.964Z,58.70
2017-09-11T14:47:32.250Z,58.70
2017-09-11T14:49:58.537Z,57.90
2017-09-11T14:52:25.578Z,57.80
2017-09-11T14:54:52.674Z,56.80
2017-09-11T14:57:18.937Z,56.20
2017-09-11T14:59:45.241Z,58.30
2017-09-11T15:02:11.617Z,57.30
2017-09-11T15:04:38.720Z,58.10
2017-09-11T15:07:05.024Z,58.10
2017-09-11T15:09:31.707Z,57.50
2017-09-11T15:11:58.002Z,58.30
2017-09-11T15:14:24.358Z,58.50
2017-09-11T15:16:50.962Z,58.40
2017-09-11T15:19:17.269Z,58.60
2017-09-11T15:21:44.254Z,58.70
2017-09-11T15:24:10.608Z,58.70
2017-09-11T15:26:36.911Z,56.60
2017-09-11T15:29:03.209Z,56.40
2017-09-11T15:31:30.297Z,53.40
2017-09-11T15:33:56.546Z,53.30
2017-09-11T15:36:22.837Z,52.30
2017-09-11T15:38:49.184Z,54.00
2017-09-11T15:41:15.475Z,53.90
2017-09-11T15:43:42.530Z,54.20
2017-09-11T15:46:09.629Z,54.20
2017-09-11T15:48:35.994Z,54.20
2017-09-11T15:51:03.439Z,54.10
2017-09-11T15:53:30.142Z,54.00
2017-09-11T15:55:56.471Z,54.30
2017-09-11T15:58:22.741Z,54.00
2017-09-11T16:00:49.097Z,53.00
2017-09-11T16:03:16.163Z,53.20
2017-09-11T16:05:42.491Z,53.20
2017-09-11T16:08:09.241Z,53.80
2017-09-11T16:10:35.579Z,52.90
2017-09-11T16:13:01.920Z,54.70
2017-09-11T16:15:28.202Z,54.50
2017-09-11T16:17:55.217Z,55.50
2017-09-11T16:20:21.521Z,55.50
2017-09-11T16:22:48.131Z,55.30
2017-09-11T16:25:14.412Z,55.70
2017-09-11T16:27:40.741Z,55.40
2017-09-11T16:30:07.093Z,55.60
2017-09-11T16:32:33.377Z,56.60
2017-09-11T16:34:59.665Z,56.60
2017-09-11T16:37:26.761Z,56.50
2017-09-11T16:39:53.081Z,56.50
2017-09-11T16:42:19.424Z,57.20
2017-09-11T16:44:45.790Z,57.30
2017-09-11T16:47:12.086Z,56.80
2017-09-11T16:49:38.402Z,57.50
2017-09-11T16:52:05.080Z,57.20
2017-09-11T16:54:31.388Z,57.60
2017-09-11T16:56:57.769Z,58.30
2017-09-11T16:59:25.318Z,59.10
2017-09-11T17:01:52.391Z,60.20
2017-09-11T17:04:18.686Z,59.40
2017-09-11T17:06:45.409Z,59.90
2017-09-11T17:09:11.793Z,59.70
2017-09-11T17:11:38.342Z,59.80
2017-09-11T17:14:04.988Z,59.90
2017-09-11T17:16:31.323Z,60.70
2017-09-11T17:18:57.596Z,60.50
2017-09-11T17:21:24.073Z,61.40
2017-09-11T17:23:50.370Z,60.00
2017-09-11T17:26:16.622Z,61.10
2017-09-11T17:28:43.642Z,60.90
2017-09-11T17:31:09.916Z,60.90
2017-09-11T17:33:36.236Z,61.50
2017-09-11T17:36:02.538Z,62.20
2017-09-11T17:38:28.924Z,61.90
2017-09-11T17:40:55.223Z,61.90
2017-09-11T17:43:24.344Z,61.80
2017-09-11T17:45:51.614Z,61.80
2017-09-11T17:48:18.708Z,60.40
2017-09-11T17:50:46.089Z,60.00
2017-09-11T17:53:12.440Z,60.00
2017-09-11T17:55:38.726Z,59.80
2017-09-11T17:58:05.771Z,58.00
2017-09-11T18:00:32.873Z,57.60
2017-09-11T18:02:59.209Z,57.60
2017-09-11T18:05:25.473Z,57.50
2017-09-11T18:07:52.572Z,57.60
2017-09-11T18:10:19.296Z,56.70
2017-09-11T18:12:45.630Z,56.90
2017-09-11T18:15:11.950Z,56.60
2017-09-11T18:17:38.644Z,57.20
2017-09-11T18:20:04.894Z,57.00
2017-09-11T18:22:31.912Z,57.80
2017-09-11T18:24:58.210Z,57.40
2017-09-11T18:27:24.513Z,57.80
2017-09-11T18:29:51.573Z,57.60
2017-09-11T18:32:18.260Z,57.50
2017-09-11T18:34:44.630Z,57.90
2017-09-11T18:37:10.887Z,58.30
2017-09-11T18:39:37.161Z,58.80
2017-09-11T18:42:03.443Z,60.00
2017-09-11T18:44:29.829Z,60.50
2017-09-11T18:46:56.908Z,63.30
2017-09-11T18:49:23.235Z,62.60
2017-09-11T18:51:49.593Z,63.40
2017-09-11T18:54:15.857Z,64.10
2017-09-11T18:56:42.448Z,65.00
2017-09-11T18:59:08.719Z,64.50
2017-09-11T19:01:35.054Z,64.10
2017-09-11T19:04:01.409Z,65.10
2017-09-11T19:06:28.488Z,65.20
2017-09-11T19:08:54.777Z,65.10
2017-09-11T19:11:21.089Z,65.10
2017-09-11T19:13:47.345Z,65.30
2017-09-11T19:16:14.457Z,65.50
2017-09-11T19:18:40.693Z,65.50
2017-09-11T19:21:07.289Z,65.90
2017-09-11T19:23:33.577Z,66.40
2017-09-11T19:25:59.854Z,66.90
2017-09-11T19:28:26.204Z,67.10
2017-09-11T19:30:52.513Z,67.10
2017-09-11T19:33:18.846Z,67.50
2017-09-11T19:35:45.585Z,67.90
2017-09-11T19:38:11.990Z,68.00
2017-09-11T19:40:39.033Z,68.60
2017-09-11T19:43:06.532Z,69.20
2017-09-11T19:45:32.809Z,69.10
2017-09-11T19:47:59.161Z,69.60
2017-09-11T19:50:26.587Z,69.80
2017-09-11T19:52:52.933Z,69.70
2017-09-11T19:55:20.087Z,70.70
2017-09-11T19:57:48.363Z,70.80
2017-09-11T20:00:15.486Z,70.20
2017-09-11T20:02:41.768Z,70.10
2017-09-11T20:05:08.473Z,70.70
2017-09-11T20:07:35.522Z,70.80
2017-09-11T20:10:02.139Z,70.90
2017-09-11T20:12:28.596Z,71.30
2017-09-11T20:14:55.657Z,71.20
2017-09-11T20:17:23.061Z,71.10
2017-09-11T20:19:49.409Z,71.10
2017-09-11T20:22:15.713Z,71.20
2017-09-11T20:24:41.972Z,71.20
2017-09-11T20:27:08.266Z,71.60
2017-09-11T20:29:34.553Z,71.80
2017-09-11T20:32:01.997Z,72.30
2017-09-11T20:34:28.280Z,72.30
2017-09-11T20:36:54.572Z,71.90
2017-09-11T20:39:21.647Z,72.10
2017-09-11T20:41:48.328Z,72.10
2017-09-11T20:44:14.600Z,72.20
2017-09-11T20:46:41.654Z,72.40
2017-09-11T20:49:08.108Z,72.40
2017-09-11T20:51:34.383Z,73.00
2017-09-11T20:54:00.704Z,72.70
2017-09-11T20:56:27.030Z,72.50
2017-09-11T20:58:53.285Z,72.90
2017-09-11T21:01:19.534Z,72.50
2017-09-11T21:03:46.556Z,73.10
2017-09-11T21:06:13.195Z,73.10
2017-09-11T21:08:39.466Z,73.10
2017-09-11T21:11:35.805Z,73.90
2017-09-11T21:14:02.146Z,73.70
2017-09-11T21:16:28.452Z,73.30
2017-09-11T21:18:54.753Z,72.90
2017-09-11T21:21:21.049Z,73.70
2017-09-11T21:23:48.060Z,74.00
2017-09-11T21:26:15.140Z,73.60
2017-09-11T21:28:41.382Z,73.50
2017-09-11T21:31:07.728Z,72.90
2017-09-11T21:33:34.461Z,73.20
2017-09-11T21:36:01.465Z,74.00
2017-09-11T21:38:27.740Z,73.90
2017-09-11T21:40:54.078Z,73.60
2017-09-11T21:43:20.356Z,73.60
2017-09-11T21:45:46.646Z,73.20
2017-09-11T21:48:12.932Z,73.80
2017-09-11T21:50:39.283Z,73.30
2017-09-11T21:53:05.596Z,73.30
2017-09-11T21:55:32.233Z,72.90
2017-09-11T21:57:58.456Z,73.40
2017-09-11T22:00:24.726Z,73.70
2017-09-11T22:02:51.361Z,73.90
2017-09-11T22:05:17.647Z,74.30
2017-09-11T22:07:43.965Z,74.60
2017-09-11T22:10:10.270Z,74.10
2017-09-11T22:12:36.565Z,74.40
2017-09-11T22:15:02.911Z,74.00
2017-09-11T22:17:29.261Z,74.20
2017-09-11T22:19:56.305Z,73.80
2017-09-11T22:22:22.616Z,73.80
2017-09-11T22:24:48.992Z,74.30
2017-09-11T22:27:15.289Z,74.00
2017-09-11T22:29:41.648Z,74.60
2017-09-11T22:32:08.708Z,74.20
2017-09-11T22:34:35.027Z,74.10
2017-09-11T22:37:02.454Z,74.80
2017-09-11T22:39:28.788Z,74.60
2017-09-11T22:41:55.117Z,74.90
2017-09-11T22:44:21.730Z,74.80
2017-09-11T22:46:47.978Z,75.10
2017-09-11T22:49:14.288Z,74.90
2017-09-11T22:51:40.908Z,73.90
2017-09-11T22:54:07.158Z,74.60
2017-09-11T22:56:33.437Z,74.40
2017-09-11T22:59:00.809Z,74.30
2017-09-11T23:01:27.147Z,74.30
2017-09-11T23:03:53.445Z,74.80
2017-09-11T23:06:20.868Z,75.00
2017-09-11T23:08:47.184Z,75.00
2017-09-11T23:11:13.496Z,74.60
2017-09-11T23:13:40.181Z,74.40
2017-09-11T23:16:06.457Z,74.30
2017-09-11T23:18:32.772Z,74.60
2017-09-11T23:21:00.141Z,74.30
2017-09-11T23:23:26.429Z,74.30
2017-09-11T23:25:52.715Z,74.10
2017-09-11T23:28:19.329Z,74.50
2017-09-11T23:30:46.326Z,74.80
2017-09-11T23:33:12.620Z,74.80
2017-09-11T23:35:39.302Z,74.90
2017-09-11T23:38:06.359Z,75.70
2017-09-11T23:40:32.666Z,75.00
2017-09-11T23:42:59.284Z,74.70
2017-09-11T23:45:25.530Z,74.90
2017-09-11T23:47:51.916Z,75.30
2017-09-11T23:50:18.615Z,75.10
2017-09-11T23:52:44.932Z,75.60
2017-09-11T23:55:11.210Z,75.10
2017-09-11T23:57:38.527Z,75.30
